Terminal Aerodrome Forecast
Issued by NWS

Home | Current Version | Previous Version | Text Only | Print | Product List | Glossary On
Versions: 1 2 3 4 5 6 7 8 9 10 11 12 13 14 15
000
FTUS45 KRIW 222100 AAA
TAFWRL
TAF AMD
KWRL 222141Z 2222/2318 00000KT P6SM SCT050 BKN110
      TEMPO 2222/2223 2SM +TSRA OVC035CB
     FM222300 12012KT P6SM VCSH SCT030 BKN050
     FM230900 VRB06KT P6SM SCT020 BKN050
     FM231500 VRB03KT P6SM VCSH SCT050 BKN100=

USA.gov is the U.S. government's official web portal to all federal, state and local government web resources and services.